createdAt,value
2018-07-17T00:01:11.355Z,19.57
2018-07-17T00:06:15.618Z,19.10
2018-07-17T00:11:19.394Z,18.61
2018-07-17T00:16:23.187Z,18.84
2018-07-17T00:21:27.166Z,19.16
2018-07-17T00:26:30.672Z,19.28
2018-07-17T00:31:34.517Z,19.21
2018-07-17T00:36:38.081Z,19.26
2018-07-17T00:41:41.571Z,19.20
2018-07-17T00:46:45.070Z,19.21
2018-07-17T00:51:48.738Z,19.38
2018-07-17T00:56:52.231Z,19.25
2018-07-17T01:02:00.976Z,19.12
2018-07-17T01:07:09.893Z,19.20
2018-07-17T01:12:13.413Z,18.98
2018-07-17T01:17:17.986Z,18.21
2018-07-17T01:22:21.551Z,18.27
2018-07-17T01:27:25.111Z,18.50
2018-07-17T01:32:28.645Z,18.37
2018-07-17T01:37:32.418Z,18.42
2018-07-17T01:42:36.042Z,18.37
2018-07-17T01:47:39.527Z,18.35
2018-07-17T01:52:43.147Z,18.24
2018-07-17T01:57:46.709Z,18.39
2018-07-17T02:02:50.403Z,18.19
2018-07-17T02:07:53.921Z,18.14
2018-07-17T02:12:57.498Z,17.94
2018-07-17T02:18:00.975Z,17.98
2018-07-17T02:23:04.726Z,17.96
2018-07-17T02:28:08.365Z,17.68
2018-07-17T02:33:11.867Z,17.80
2018-07-17T02:38:15.398Z,17.68
2018-07-17T02:43:19.026Z,17.54
2018-07-17T02:48:22.823Z,17.54
2018-07-17T02:53:26.406Z,17.47
2018-07-17T02:58:30.781Z,16.96
2018-07-17T03:03:34.263Z,17.36
2018-07-17T03:08:37.765Z,17.05
2018-07-17T03:13:41.302Z,17.42
2018-07-17T03:18:44.807Z,17.33
2018-07-17T03:23:48.314Z,17.13
2018-07-17T03:28:52.105Z,16.94
2018-07-17T03:33:55.883Z,17.14
2018-07-17T03:38:59.417Z,17.32
2018-07-17T03:44:03.108Z,17.19
2018-07-17T03:49:07.041Z,17.22
2018-07-17T03:54:10.646Z,17.44
2018-07-17T03:59:14.198Z,17.16
2018-07-17T04:04:17.885Z,17.22
2018-07-17T04:09:21.370Z,17.14
2018-07-17T04:14:24.828Z,17.19
2018-07-17T04:19:28.410Z,17.39
2018-07-17T04:24:31.993Z,17.47
2018-07-17T04:29:35.527Z,17.39
2018-07-17T04:34:39.390Z,17.28
2018-07-17T04:39:42.986Z,17.47
2018-07-17T04:44:46.506Z,17.61
2018-07-17T04:49:50.140Z,17.78
2018-07-17T04:54:54.043Z,17.93
2018-07-17T04:59:57.666Z,18.06
2018-07-17T05:05:04.338Z,18.11
2018-07-17T05:10:08.136Z,18.30
2018-07-17T05:15:11.929Z,18.45
2018-07-17T05:20:15.665Z,18.54
2018-07-17T05:25:19.082Z,18.78
2018-07-17T05:30:22.763Z,18.87
2018-07-17T05:35:26.893Z,19.03
2018-07-17T05:40:31.177Z,19.12
2018-07-17T05:45:34.872Z,19.13
2018-07-17T05:50:38.361Z,19.27
2018-07-17T05:55:41.976Z,19.44
2018-07-17T06:00:45.652Z,19.73
2018-07-17T06:05:49.225Z,19.92
2018-07-17T06:10:52.838Z,20.07
2018-07-17T06:15:56.772Z,20.10
2018-07-17T06:21:00.396Z,20.26
2018-07-17T06:26:04.315Z,20.43
2018-07-17T06:31:07.882Z,20.61
2018-07-17T06:36:12.395Z,20.68
2018-07-17T06:41:15.947Z,20.82
2018-07-17T06:46:19.597Z,20.98
2018-07-17T06:51:23.129Z,21.06
2018-07-17T06:56:27.126Z,21.36
2018-07-17T07:01:30.724Z,21.43
2018-07-17T07:06:34.278Z,21.61
2018-07-17T07:11:38.326Z,21.75
2018-07-17T07:16:42.334Z,21.89
2018-07-17T07:21:45.806Z,21.94
2018-07-17T07:26:49.406Z,22.06
2018-07-17T07:31:55.301Z,22.32
2018-07-17T07:36:59.497Z,22.36
2018-07-17T07:42:04.233Z,22.44
2018-07-17T07:47:08.505Z,22.52
2018-07-17T07:52:12.742Z,22.77
2018-07-17T07:57:17.434Z,22.85
2018-07-17T08:02:22.058Z,23.03
2018-07-17T08:07:26.438Z,23.21
2018-07-17T08:12:31.195Z,23.36
2018-07-17T08:17:35.520Z,23.55
2018-07-17T08:22:39.888Z,23.62
2018-07-17T08:27:45.518Z,23.90
2018-07-17T08:32:49.980Z,23.97
2018-07-17T08:37:57.885Z,24.08
2018-07-17T08:43:02.115Z,24.39
2018-07-17T08:48:06.007Z,24.55
2018-07-17T08:53:10.336Z,24.56
2018-07-17T08:58:14.940Z,24.65
2018-07-17T09:03:19.415Z,24.49
2018-07-17T09:08:24.170Z,24.93
2018-07-17T09:13:28.322Z,25.20
2018-07-17T09:18:32.757Z,25.43
2018-07-17T09:23:37.371Z,25.49
2018-07-17T09:28:42.626Z,25.38
2018-07-17T09:33:46.855Z,25.67
2018-07-17T09:38:51.001Z,25.63
2018-07-17T09:43:55.379Z,25.64
2018-07-17T09:48:59.885Z,26.03
2018-07-17T09:54:04.014Z,26.11
2018-07-17T09:59:09.311Z,26.28
2018-07-17T10:04:15.580Z,26.53
2018-07-17T10:09:20.014Z,26.79
2018-07-17T10:14:25.059Z,26.44
2018-07-17T10:19:29.343Z,26.52
2018-07-17T10:24:33.550Z,27.14
2018-07-17T10:29:38.030Z,26.87
2018-07-17T10:34:42.430Z,26.98
2018-07-17T10:39:46.486Z,26.80
2018-07-17T10:44:50.549Z,27.20
2018-07-17T10:49:54.785Z,27.30
2018-07-17T10:54:59.561Z,26.96
2018-07-17T11:00:08.581Z,27.55
2018-07-17T11:05:13.836Z,27.57
2018-07-17T11:10:18.377Z,27.41
2018-07-17T11:15:22.351Z,27.65
2018-07-17T11:20:26.210Z,27.93
2018-07-17T11:25:30.746Z,28.27
2018-07-17T11:30:34.985Z,28.20
2018-07-17T11:35:39.192Z,28.38
2018-07-17T11:40:44.059Z,28.60
2018-07-17T11:45:48.779Z,28.59
2018-07-17T11:50:53.049Z,28.80
2018-07-17T11:55:57.955Z,28.24
2018-07-17T12:01:01.621Z,28.42
2018-07-17T12:06:05.341Z,28.80
2018-07-17T12:11:09.324Z,28.97
2018-07-17T12:16:13.589Z,29.84
2018-07-17T12:21:17.437Z,29.93
2018-07-17T12:26:21.972Z,30.35
2018-07-17T12:31:26.086Z,31.16
2018-07-17T12:36:29.909Z,30.38
2018-07-17T12:41:34.217Z,30.75
2018-07-17T12:46:38.347Z,30.79
2018-07-17T12:51:42.478Z,31.29
2018-07-17T12:56:46.845Z,30.83
2018-07-17T13:01:50.716Z,31.22
2018-07-17T13:06:55.562Z,31.16
2018-07-17T13:11:59.628Z,30.96
2018-07-17T13:17:04.386Z,30.57
2018-07-17T13:22:09.317Z,30.66
2018-07-17T13:27:13.412Z,30.41
2018-07-17T13:32:17.563Z,30.71
2018-07-17T13:37:22.251Z,30.63
2018-07-17T13:42:26.670Z,30.70
2018-07-17T13:47:30.649Z,30.40
2018-07-17T13:52:35.036Z,30.68
2018-07-17T13:57:38.691Z,30.72
2018-07-17T14:02:42.530Z,30.85
2018-07-17T14:07:46.660Z,30.98
2018-07-17T14:12:50.919Z,30.93
2018-07-17T14:17:55.825Z,31.20
2018-07-17T14:23:00.361Z,31.34
2018-07-17T14:28:04.234Z,31.61
2018-07-17T14:33:08.379Z,31.68
2018-07-17T14:38:12.506Z,30.99
2018-07-17T14:43:16.914Z,31.56
2018-07-17T14:48:22.104Z,31.76
2018-07-17T14:53:28.503Z,31.68
2018-07-17T14:58:32.646Z,31.84
2018-07-17T15:03:37.858Z,32.10
2018-07-17T15:08:42.822Z,32.83
2018-07-17T15:13:46.919Z,32.88
2018-07-17T15:18:51.282Z,33.11
2018-07-17T15:23:55.071Z,32.65
2018-07-17T15:28:59.073Z,32.75
2018-07-17T15:34:03.209Z,32.94
2018-07-17T15:39:10.135Z,33.26
2018-07-17T15:44:14.548Z,33.62
2018-07-17T15:49:18.679Z,34.08
2018-07-17T15:54:23.137Z,34.49
2018-07-17T15:59:27.542Z,34.34
2018-07-17T16:04:31.819Z,35.72
2018-07-17T16:09:36.652Z,35.83
2018-07-17T16:14:44.396Z,36.40
2018-07-17T16:19:48.615Z,37.35
2018-07-17T16:24:53.344Z,35.29
2018-07-17T16:29:57.740Z,35.31
2018-07-17T16:35:07.859Z,34.16
2018-07-17T16:40:12.184Z,34.03
2018-07-17T16:45:16.374Z,33.46
2018-07-17T16:50:20.674Z,33.43
2018-07-17T16:55:25.458Z,32.62
2018-07-17T17:00:29.382Z,32.69
2018-07-17T17:05:33.405Z,33.05
2018-07-17T17:10:37.430Z,32.93
2018-07-17T17:15:41.414Z,32.74
2018-07-17T17:20:45.583Z,32.72
2018-07-17T17:25:50.042Z,32.53
2018-07-17T17:30:55.642Z,32.40
2018-07-17T17:35:59.543Z,32.49
2018-07-17T17:41:03.348Z,33.17
2018-07-17T17:46:08.043Z,33.72
2018-07-17T17:51:12.120Z,33.18
2018-07-17T17:56:17.623Z,34.23
2018-07-17T18:01:21.901Z,33.15
2018-07-17T18:06:26.470Z,32.95
2018-07-17T18:11:30.105Z,32.98
2018-07-17T18:16:33.786Z,32.62
2018-07-17T18:21:37.268Z,31.41
2018-07-17T18:26:40.990Z,30.58
2018-07-17T18:31:44.491Z,30.45
2018-07-17T18:36:48.157Z,30.32
2018-07-17T18:41:52.052Z,30.20
2018-07-17T18:46:55.702Z,29.91
2018-07-17T18:51:59.287Z,29.49
2018-07-17T18:57:02.984Z,29.48
2018-07-17T19:02:06.810Z,29.19
2018-07-17T19:07:10.458Z,28.90
2018-07-17T19:12:14.073Z,28.85
2018-07-17T19:17:17.708Z,28.70
2018-07-17T19:22:21.405Z,28.32
2018-07-17T19:27:24.980Z,28.03
2018-07-17T19:32:28.611Z,27.91
2018-07-17T19:37:32.269Z,27.87
2018-07-17T19:42:35.881Z,27.62
2018-07-17T19:47:39.380Z,27.38
2018-07-17T19:52:43.104Z,27.43
2018-07-17T19:57:46.578Z,27.42
2018-07-17T20:02:50.254Z,27.34
2018-07-17T20:07:53.754Z,27.30
2018-07-17T20:12:57.383Z,27.30
2018-07-17T20:18:01.186Z,27.18
2018-07-17T20:23:04.978Z,26.97
2018-07-17T20:28:08.653Z,26.77
2018-07-17T20:33:12.195Z,26.63
2018-07-17T20:38:15.794Z,26.77
2018-07-17T20:43:19.225Z,26.43
2018-07-17T20:48:23.551Z,26.20
2018-07-17T20:53:27.149Z,26.18
2018-07-17T20:58:30.872Z,26.09
2018-07-17T21:03:34.546Z,26.13
2018-07-17T21:08:38.285Z,25.64
2018-07-17T21:13:41.862Z,25.57
2018-07-17T21:18:45.645Z,25.72
2018-07-17T21:23:49.401Z,25.87
2018-07-17T21:28:53.766Z,25.73
2018-07-17T21:33:57.366Z,25.56
2018-07-17T21:39:01.009Z,25.38
2018-07-17T21:44:04.692Z,25.13
2018-07-17T21:49:08.225Z,24.98
2018-07-17T21:54:12.002Z,25.03
2018-07-17T21:59:15.575Z,25.04
2018-07-17T22:04:19.642Z,24.78
2018-07-17T22:09:23.390Z,24.37
2018-07-17T22:14:27.061Z,24.11
2018-07-17T22:19:30.546Z,24.33
2018-07-17T22:24:34.221Z,23.98
2018-07-17T22:29:37.736Z,23.63
2018-07-17T22:34:41.306Z,23.59
2018-07-17T22:39:44.859Z,23.60
2018-07-17T22:44:48.366Z,23.50
2018-07-17T22:49:51.965Z,23.36
2018-07-17T22:54:55.479Z,22.65
2018-07-17T22:59:59.041Z,22.91
2018-07-17T23:05:02.970Z,23.07
2018-07-17T23:10:07.469Z,22.70
2018-07-17T23:15:11.443Z,22.71
2018-07-17T23:20:14.965Z,22.36
2018-07-17T23:25:19.164Z,22.21
2018-07-17T23:30:22.715Z,22.41
2018-07-17T23:35:26.638Z,21.82
2018-07-17T23:40:30.410Z,21.56
2018-07-17T23:45:34.779Z,21.47
2018-07-17T23:50:38.341Z,21.24
2018-07-17T23:55:42.098Z,21.33
